createdAt,value
2023-02-17T00:01:14.464Z,98764.41
2023-02-17T00:03:48.305Z,98763.75
2023-02-17T00:06:24.651Z,98761.66
2023-02-17T00:08:58.167Z,98774.00
2023-02-17T00:11:32.640Z,98765.13
2023-02-17T00:14:05.782Z,98762.03
2023-02-17T00:16:38.771Z,98762.25
2023-02-17T00:19:26.377Z,98758.28
2023-02-17T00:22:01.321Z,98756.59
2023-02-17T00:24:38.901Z,98761.19
2023-02-17T00:27:13.247Z,98751.63
2023-02-17T00:29:46.456Z,98751.94
2023-02-17T00:32:19.541Z,98757.94
2023-02-17T00:34:55.441Z,98747.28
2023-02-17T00:37:28.426Z,98743.50
2023-02-17T00:40:01.503Z,98745.81
2023-02-17T00:42:35.922Z,98748.16
2023-02-17T00:45:10.241Z,98748.81
2023-02-17T00:47:43.452Z,98747.59
2023-02-17T00:50:16.660Z,98748.94
2023-02-17T00:52:49.712Z,98751.16
2023-02-17T00:55:22.739Z,98754.28
2023-02-17T00:57:57.213Z,98751.38
2023-02-17T01:00:30.343Z,98748.50
2023-02-17T01:03:03.521Z,98759.38
2023-02-17T01:05:42.451Z,98748.16
2023-02-17T01:08:16.361Z,98757.03
2023-02-17T01:10:50.873Z,98751.03
2023-02-17T01:13:25.357Z,98749.13
2023-02-17T01:15:58.739Z,98753.25
2023-02-17T01:18:31.843Z,98754.34
2023-02-17T01:21:05.136Z,98755.38
2023-02-17T01:23:38.216Z,98744.78
2023-02-17T01:26:15.751Z,98741.44
2023-02-17T01:28:52.257Z,98734.63
2023-02-17T01:31:27.849Z,98734.38
2023-02-17T01:34:04.636Z,98728.81
2023-02-17T01:36:37.713Z,98728.47
2023-02-17T01:39:14.279Z,98724.44
2023-02-17T01:41:47.654Z,98727.00
2023-02-17T01:44:24.396Z,98723.16
2023-02-17T01:46:57.679Z,98712.72
2023-02-17T01:49:35.479Z,98709.63
2023-02-17T01:52:16.108Z,98713.56
2023-02-17T01:54:52.476Z,98711.19
2023-02-17T01:57:31.859Z,98707.25
2023-02-17T02:00:10.450Z,98705.88
2023-02-17T02:02:49.265Z,98701.09
2023-02-17T02:05:23.354Z,98707.63
2023-02-17T02:07:56.715Z,98693.63
2023-02-17T02:10:29.777Z,98700.06
2023-02-17T02:13:02.961Z,98706.56
2023-02-17T02:15:47.654Z,98697.03
2023-02-17T02:18:45.576Z,98691.09
2023-02-17T02:21:53.871Z,98688.97
2023-02-17T02:24:40.004Z,98686.53
2023-02-17T02:27:47.415Z,98688.75
2023-02-17T02:30:51.379Z,98682.34
2023-02-17T02:33:36.833Z,98687.81
2023-02-17T02:36:15.845Z,98677.22
2023-02-17T02:38:54.850Z,98681.81
2023-02-17T02:41:32.823Z,98677.38
2023-02-17T02:44:07.731Z,98677.78
2023-02-17T02:46:41.277Z,98673.63
2023-02-17T02:49:15.643Z,98678.78
2023-02-17T02:51:55.793Z,98671.94
2023-02-17T02:54:44.344Z,98676.28
2023-02-17T02:57:34.544Z,98671.44
2023-02-17T03:00:20.525Z,98684.91
2023-02-17T03:02:59.954Z,98682.13
2023-02-17T03:05:45.910Z,98679.84
2023-02-17T03:08:25.588Z,98665.91
2023-02-17T03:10:58.911Z,98667.03
2023-02-17T03:13:37.925Z,98678.75
2023-02-17T03:16:12.962Z,98672.84
2023-02-17T03:18:46.058Z,98671.38
2023-02-17T03:21:20.825Z,98666.53
2023-02-17T03:23:53.903Z,98670.09
2023-02-17T03:26:26.974Z,98659.47
2023-02-17T03:29:00.154Z,98662.81
2023-02-17T03:31:33.975Z,98654.34
2023-02-17T03:34:07.387Z,98647.34
2023-02-17T03:36:41.802Z,98645.66
2023-02-17T03:39:14.868Z,98646.78
2023-02-17T03:41:50.533Z,98648.81
2023-02-17T03:44:23.633Z,98651.06
2023-02-17T03:46:56.684Z,98647.81
2023-02-17T03:49:29.974Z,98644.28
2023-02-17T03:52:04.607Z,98656.34
2023-02-17T03:54:38.640Z,98652.47
2023-02-17T03:57:11.848Z,98656.59
2023-02-17T03:59:45.528Z,98656.41
2023-02-17T04:02:18.578Z,98648.34
2023-02-17T04:04:51.638Z,98652.38
2023-02-17T04:07:26.064Z,98655.00
2023-02-17T04:09:59.121Z,98653.47
2023-02-17T04:12:32.152Z,98651.22
2023-02-17T04:15:05.750Z,98655.97
2023-02-17T04:17:39.682Z,98654.75
2023-02-17T04:20:14.146Z,98659.25
2023-02-17T04:22:48.624Z,98656.59
2023-02-17T04:25:21.694Z,98659.03
2023-02-17T04:27:54.687Z,98664.94
2023-02-17T04:30:27.968Z,98658.28
2023-02-17T04:33:01.642Z,98667.72
2023-02-17T04:35:34.692Z,98663.88
2023-02-17T04:38:10.356Z,98660.59
2023-02-17T04:40:44.348Z,98666.25
2023-02-17T04:43:17.348Z,98666.50
2023-02-17T04:45:50.597Z,98664.38
2023-02-17T04:48:23.943Z,98667.25
2023-02-17T04:50:57.003Z,98661.63
2023-02-17T04:53:31.504Z,98657.38
2023-02-17T04:56:05.380Z,98662.88
2023-02-17T04:58:38.646Z,98663.44
2023-02-17T05:01:11.892Z,98661.25
2023-02-17T05:03:45.000Z,98649.50
2023-02-17T05:06:18.034Z,98653.53
2023-02-17T05:08:53.755Z,98647.75
2023-02-17T05:11:26.987Z,98640.94
2023-02-17T05:13:59.982Z,98644.78
2023-02-17T05:16:33.253Z,98643.19
2023-02-17T05:19:06.320Z,98642.09
2023-02-17T05:21:39.626Z,98644.78
2023-02-17T05:24:14.064Z,98648.72
2023-02-17T05:26:47.193Z,98642.28
2023-02-17T05:29:20.458Z,98656.06
2023-02-17T05:31:53.543Z,98645.75
2023-02-17T05:34:26.664Z,98647.09
2023-02-17T05:36:59.831Z,98650.53
2023-02-17T05:39:34.171Z,98648.97
2023-02-17T05:42:07.344Z,98654.19
2023-02-17T05:44:40.424Z,98644.28
2023-02-17T05:47:13.500Z,98651.75
2023-02-17T05:49:46.611Z,98657.63
2023-02-17T05:52:19.777Z,98655.06
2023-02-17T05:54:54.248Z,98666.22
2023-02-17T05:57:27.601Z,98658.22
2023-02-17T06:00:00.829Z,98659.56
2023-02-17T06:02:33.902Z,98668.44
2023-02-17T06:05:08.480Z,98670.88
2023-02-17T06:07:41.646Z,98674.09
2023-02-17T06:10:16.401Z,98672.97
2023-02-17T06:12:49.529Z,98680.44
2023-02-17T06:15:23.036Z,98677.78
2023-02-17T06:17:56.252Z,98676.97
2023-02-17T06:20:29.546Z,98678.28
2023-02-17T06:23:02.858Z,98678.88
2023-02-17T06:25:37.411Z,98679.88
2023-02-17T06:28:10.505Z,98680.63
2023-02-17T06:30:43.628Z,98684.19
2023-02-17T06:33:16.852Z,98684.88
2023-02-17T06:35:51.222Z,98687.34
2023-02-17T06:38:24.369Z,98684.78
2023-02-17T06:40:58.908Z,98691.31
2023-02-17T06:43:32.206Z,98695.31
2023-02-17T06:46:06.543Z,98696.91
2023-02-17T06:48:40.053Z,98694.22
2023-02-17T06:51:13.241Z,98691.53
2023-02-17T06:53:46.527Z,98694.22
2023-02-17T06:56:21.481Z,98694.22
2023-02-17T06:58:54.606Z,98695.97
2023-02-17T07:01:28.131Z,98700.34
2023-02-17T07:04:01.237Z,98697.78
2023-02-17T07:06:34.516Z,98696.41
2023-02-17T07:09:07.744Z,98700.53
2023-02-17T07:11:45.187Z,98701.50
2023-02-17T07:14:18.368Z,98692.75
2023-02-17T07:16:51.997Z,98695.44
2023-02-17T07:19:25.121Z,98701.84
2023-02-17T07:21:58.322Z,98701.19
2023-02-17T07:24:31.527Z,98698.81
2023-02-17T07:27:10.608Z,98701.03
2023-02-17T07:29:43.971Z,98706.16
2023-02-17T07:32:17.334Z,98706.25
2023-02-17T07:34:50.497Z,98712.63
2023-02-17T07:37:23.629Z,98706.16
2023-02-17T07:39:57.280Z,98714.47
2023-02-17T07:42:31.905Z,98710.31
2023-02-17T07:45:05.954Z,98693.88
2023-02-17T07:47:39.250Z,98703.63
2023-02-17T07:50:12.826Z,98706.00
2023-02-17T07:52:46.199Z,98701.66
2023-02-17T07:55:19.610Z,98704.44
2023-02-17T07:57:54.232Z,98701.75
2023-02-17T08:00:27.814Z,98718.06
2023-02-17T08:03:01.418Z,98715.22
2023-02-17T08:05:34.533Z,98727.19
2023-02-17T08:08:25.684Z,98730.75
2023-02-17T08:11:22.046Z,98724.19
2023-02-17T08:13:56.869Z,98718.00
2023-02-17T08:16:30.116Z,98714.88
2023-02-17T08:19:03.399Z,98721.41
2023-02-17T08:21:36.725Z,98716.22
2023-02-17T08:24:09.869Z,98714.66
2023-02-17T08:26:43.403Z,98711.09
2023-02-17T08:29:20.274Z,98716.03
2023-02-17T08:31:54.881Z,98709.53
2023-02-17T08:34:28.813Z,98710.56
2023-02-17T08:37:02.363Z,98712.56
2023-02-17T08:39:37.027Z,98706.28
2023-02-17T08:42:11.401Z,98704.88
2023-02-17T08:44:46.299Z,98716.53
2023-02-17T08:47:19.681Z,98722.81
2023-02-17T08:49:52.852Z,98708.44
2023-02-17T08:52:26.112Z,98713.84
2023-02-17T08:54:59.639Z,98719.44
2023-02-17T08:57:32.927Z,98720.97
2023-02-17T09:00:10.272Z,98717.69
2023-02-17T09:02:45.144Z,98714.63
2023-02-17T09:05:18.310Z,98717.69
2023-02-17T09:07:51.415Z,98718.47
2023-02-17T09:10:24.742Z,98711.38
2023-02-17T09:12:58.406Z,98713.78
2023-02-17T09:15:33.324Z,98725.00
2023-02-17T09:18:06.599Z,98727.16
2023-02-17T09:20:40.268Z,98731.91
2023-02-17T09:23:13.480Z,98741.84
2023-02-17T09:25:47.472Z,98739.69
2023-02-17T09:28:20.656Z,98732.88
2023-02-17T09:30:55.487Z,98730.50
2023-02-17T09:33:28.685Z,98727.34
2023-02-17T09:36:02.089Z,98731.22
2023-02-17T09:38:35.333Z,98728.13
2023-02-17T09:41:19.013Z,98735.75
2023-02-17T09:43:53.133Z,98747.28
2023-02-17T09:46:31.650Z,98751.94
2023-02-17T09:49:10.223Z,98753.00
2023-02-17T09:51:46.977Z,98760.47
2023-02-17T09:54:29.061Z,98747.09
2023-02-17T09:57:04.986Z,98756.34
2023-02-17T09:59:43.354Z,98756.72
2023-02-17T10:02:26.930Z,98755.19
2023-02-17T10:05:08.102Z,98757.63
2023-02-17T10:07:47.334Z,98760.41
2023-02-17T10:10:23.982Z,98764.34
2023-02-17T10:12:59.691Z,98765.94
2023-02-17T10:15:40.372Z,98765.03
2023-02-17T10:18:21.230Z,98761.28
2023-02-17T10:21:01.853Z,98760.97
2023-02-17T10:23:36.341Z,98756.34
2023-02-17T10:26:23.916Z,98752.19
2023-02-17T10:29:05.783Z,98760.19
2023-02-17T10:31:46.595Z,98756.75
2023-02-17T10:34:35.665Z,98763.22
2023-02-17T10:37:18.533Z,98755.84
2023-02-17T10:39:54.409Z,98755.53
2023-02-17T10:42:31.496Z,98765.59
2023-02-17T10:45:12.290Z,98760.88
2023-02-17T10:47:45.886Z,98758.50
2023-02-17T10:50:23.907Z,98752.66
2023-02-17T10:52:57.875Z,98756.41
2023-02-17T10:55:38.069Z,98749.81
2023-02-17T10:58:18.286Z,98744.25
2023-02-17T11:00:57.459Z,98740.50
2023-02-17T11:03:32.445Z,98738.28
2023-02-17T11:06:17.937Z,98738.72
2023-02-17T11:08:53.938Z,98726.81
2023-02-17T11:11:30.522Z,98718.31
2023-02-17T11:14:13.786Z,98719.94
2023-02-17T11:16:53.811Z,98714.53
2023-02-17T11:19:30.679Z,98706.66
2023-02-17T11:22:23.416Z,98699.47
2023-02-17T11:25:00.714Z,98703.41
2023-02-17T11:27:34.062Z,98704.28
2023-02-17T11:30:15.157Z,98706.56
2023-02-17T11:32:48.664Z,98698.16
2023-02-17T11:35:26.335Z,98688.63
2023-02-17T11:38:10.865Z,98685.53
2023-02-17T11:40:55.767Z,98684.47
2023-02-17T11:43:29.722Z,98687.44
2023-02-17T11:46:21.202Z,98683.94
2023-02-17T11:50:00.640Z,98694.91
2023-02-17T11:52:56.142Z,98683.72
2023-02-17T11:55:42.602Z,98693.47
2023-02-17T11:58:29.945Z,98691.91
2023-02-17T12:01:12.763Z,98707.13
2023-02-17T12:04:32.028Z,98702.97
2023-02-17T12:07:29.356Z,98704.75
2023-02-17T12:10:11.210Z,98694.53
2023-02-17T12:13:02.305Z,98692.06
2023-02-17T12:15:57.079Z,98692.06
2023-02-17T12:18:49.443Z,98688.00
2023-02-17T12:21:36.102Z,98691.44
2023-02-17T12:24:28.398Z,98695.41
2023-02-17T12:27:12.023Z,98704.09
2023-02-17T12:30:18.773Z,98699.56
2023-02-17T12:33:16.916Z,98708.69
2023-02-17T12:35:54.011Z,98707.78
2023-02-17T12:38:32.377Z,98707.09
2023-02-17T12:41:10.757Z,98708.06
2023-02-17T12:43:49.419Z,98700.91
2023-02-17T12:46:28.747Z,98697.72
2023-02-17T12:49:09.736Z,98699.50
2023-02-17T12:51:48.818Z,98699.50
2023-02-17T12:54:28.197Z,98695.16
2023-02-17T12:57:14.955Z,98677.44
2023-02-17T12:59:50.335Z,98678.13
2023-02-17T13:02:26.912Z,98673.34
2023-02-17T13:05:05.997Z,98677.72
2023-02-17T13:07:45.859Z,98673.28
2023-02-17T13:10:32.522Z,98670.00
2023-02-17T13:13:12.158Z,98669.56
2023-02-17T13:15:48.011Z,98671.34
2023-02-17T13:18:33.146Z,98670.28
2023-02-17T13:21:20.350Z,98671.69
2023-02-17T13:24:02.194Z,98664.59
2023-02-17T13:26:37.409Z,98663.88
2023-02-17T13:29:34.071Z,98671.34
2023-02-17T13:32:10.677Z,98659.38
2023-02-17T13:34:46.945Z,98668.50
2023-02-17T13:37:28.307Z,98670.19
2023-02-17T13:40:02.979Z,98668.97
2023-02-17T13:42:40.763Z,98662.19
2023-02-17T13:45:25.736Z,98669.91
2023-02-17T13:48:01.176Z,98662.59
2023-02-17T13:50:38.708Z,98662.66
2023-02-17T13:53:30.586Z,98665.34
2023-02-17T13:56:07.042Z,98664.69
2023-02-17T13:58:43.174Z,98661.16
2023-02-17T14:01:19.307Z,98653.88
2023-02-17T14:04:00.149Z,98651.47
2023-02-17T14:06:38.191Z,98649.19
2023-02-17T14:09:27.200Z,98643.06
2023-02-17T14:12:04.592Z,98644.94
2023-02-17T14:14:40.110Z,98650.31
2023-02-17T14:17:32.733Z,98647.94
2023-02-17T14:20:07.886Z,98642.97
2023-02-17T14:22:41.844Z,98634.56
2023-02-17T14:25:29.637Z,98631.06
2023-02-17T14:28:03.122Z,98634.63
2023-02-17T14:30:38.704Z,98637.84
2023-02-17T14:33:23.564Z,98634.19
2023-02-17T14:36:00.284Z,98632.06
2023-02-17T14:38:37.730Z,98638.72
2023-02-17T14:41:12.322Z,98632.25
2023-02-17T14:43:45.551Z,98637.19
2023-02-17T14:46:19.937Z,98640.16
2023-02-17T14:48:55.396Z,98629.56
2023-02-17T14:51:36.089Z,98624.25
2023-02-17T14:54:16.263Z,98624.91
2023-02-17T14:57:04.858Z,98626.97
2023-02-17T14:59:38.070Z,98622.59
2023-02-17T15:02:16.061Z,98620.19
2023-02-17T15:04:49.307Z,98623.41
2023-02-17T15:07:22.503Z,98616.34
2023-02-17T15:09:56.492Z,98625.66
2023-02-17T15:12:31.177Z,98628.78
2023-02-17T15:15:04.814Z,98618.66
2023-02-17T15:17:37.952Z,98619.09
2023-02-17T15:20:12.969Z,98621.50
2023-02-17T15:22:46.327Z,98614.19
2023-02-17T15:25:23.090Z,98617.34
2023-02-17T15:27:57.734Z,98620.56
2023-02-17T15:30:31.324Z,98622.66
2023-02-17T15:33:04.749Z,98617.78
2023-02-17T15:35:38.188Z,98618.66
2023-02-17T15:38:13.879Z,98616.97
2023-02-17T15:40:47.259Z,98620.72
2023-02-17T15:43:24.389Z,98616.19
2023-02-17T15:45:57.789Z,98616.03
2023-02-17T15:48:31.976Z,98626.00
2023-02-17T15:51:06.605Z,98612.41
2023-02-17T15:53:39.852Z,98621.50
2023-02-17T15:56:20.154Z,98609.03
2023-02-17T15:58:55.625Z,98615.81
2023-02-17T16:01:31.045Z,98603.41
2023-02-17T16:04:04.917Z,98609.09
2023-02-17T16:06:38.908Z,98602.94
2023-02-17T16:09:12.573Z,98602.91
2023-02-17T16:11:50.992Z,98612.13
2023-02-17T16:14:35.092Z,98615.94
2023-02-17T16:17:15.386Z,98619.91
2023-02-17T16:19:48.991Z,98620.28
2023-02-17T16:22:22.197Z,98620.94
2023-02-17T16:24:55.379Z,98624.00
2023-02-17T16:27:28.648Z,98621.50
2023-02-17T16:30:03.873Z,98616.03
2023-02-17T16:32:37.700Z,98616.38
2023-02-17T16:35:16.280Z,98614.28
2023-02-17T16:37:56.030Z,98610.75
2023-02-17T16:40:32.064Z,98617.25
2023-02-17T16:43:05.901Z,98620.50
2023-02-17T16:45:51.594Z,98618.63
2023-02-17T16:48:26.739Z,98625.34
2023-02-17T16:51:00.150Z,98622.94
2023-02-17T16:53:33.318Z,98622.03
2023-02-17T16:56:18.025Z,98621.09
2023-02-17T16:58:51.587Z,98613.03
2023-02-17T17:01:26.195Z,98623.81
2023-02-17T17:03:59.393Z,98618.34
2023-02-17T17:06:32.695Z,98617.09
2023-02-17T17:09:07.062Z,98625.59
2023-02-17T17:11:40.679Z,98619.75
2023-02-17T17:14:14.883Z,98620.44
2023-02-17T17:16:55.812Z,98619.03
2023-02-17T17:19:29.142Z,98627.00
2023-02-17T17:22:04.227Z,98634.31
2023-02-17T17:24:38.084Z,98626.75
2023-02-17T17:27:12.942Z,98623.13
2023-02-17T17:29:46.206Z,98628.44
2023-02-17T17:32:20.830Z,98632.41
2023-02-17T17:34:55.128Z,98619.03
2023-02-17T17:37:28.608Z,98606.50
2023-02-17T17:40:01.807Z,98615.97
2023-02-17T17:42:37.734Z,98614.59
2023-02-17T17:45:11.481Z,98625.56
2023-02-17T17:47:46.544Z,98610.50
2023-02-17T17:50:23.548Z,98620.63
2023-02-17T17:52:56.841Z,98613.25
2023-02-17T17:55:30.121Z,98627.06
2023-02-17T17:58:03.683Z,98635.78
2023-02-17T18:00:37.280Z,98635.25
2023-02-17T18:03:11.862Z,98631.50
2023-02-17T18:05:45.386Z,98639.38
2023-02-17T18:08:20.535Z,98638.94
2023-02-17T18:10:53.874Z,98648.53
2023-02-17T18:13:27.906Z,98650.69
2023-02-17T18:16:01.589Z,98644.91
2023-02-17T18:18:37.028Z,98641.13
2023-02-17T18:21:10.366Z,98653.44
2023-02-17T18:23:43.777Z,98658.47
2023-02-17T18:26:18.602Z,98657.75
2023-02-17T18:28:51.880Z,98662.09
2023-02-17T18:31:28.644Z,98663.72
2023-02-17T18:34:04.426Z,98671.59
2023-02-17T18:36:37.953Z,98670.09
2023-02-17T18:39:11.104Z,98667.22
2023-02-17T18:41:45.702Z,98673.66
2023-02-17T18:44:19.147Z,98688.72
2023-02-17T18:46:52.599Z,98697.00
2023-02-17T18:49:27.872Z,98701.78
2023-02-17T18:52:01.181Z,98691.34
2023-02-17T18:54:34.501Z,98696.59
2023-02-17T18:57:07.722Z,98706.59
2023-02-17T18:59:40.920Z,98706.75
2023-02-17T19:02:14.238Z,98713.31
2023-02-17T19:04:49.328Z,98724.94
2023-02-17T19:07:23.477Z,98728.75
2023-02-17T19:09:56.736Z,98728.56
2023-02-17T19:12:30.042Z,98742.31
2023-02-17T19:15:03.655Z,98742.75
2023-02-17T19:17:36.826Z,98753.75
2023-02-17T19:20:13.090Z,98763.03
2023-02-17T19:22:46.237Z,98756.13
2023-02-17T19:25:19.744Z,98762.97
2023-02-17T19:27:52.976Z,98764.78
2023-02-17T19:30:26.213Z,98767.16
2023-02-17T19:32:59.438Z,98772.66
2023-02-17T19:35:34.047Z,98778.06
2023-02-17T19:38:07.467Z,98787.66
2023-02-17T19:40:40.842Z,98785.44
2023-02-17T19:43:14.244Z,98791.13
2023-02-17T19:45:47.726Z,98782.50
2023-02-17T19:48:24.207Z,98805.78
2023-02-17T19:51:03.576Z,98807.56
2023-02-17T19:53:37.166Z,98805.03
2023-02-17T19:56:12.462Z,98807.41
2023-02-17T19:58:47.923Z,98810.09
2023-02-17T20:01:24.807Z,98820.47
2023-02-17T20:03:59.649Z,98820.44
2023-02-17T20:06:37.441Z,98830.81
2023-02-17T20:09:14.789Z,98825.84
2023-02-17T20:11:52.897Z,98820.13
2023-02-17T20:14:26.318Z,98819.44
2023-02-17T20:17:00.750Z,98814.13
2023-02-17T20:19:37.680Z,98814.50
2023-02-17T20:22:12.345Z,98810.97
2023-02-17T20:24:45.600Z,98816.31
2023-02-17T20:27:18.966Z,98813.31
2023-02-17T20:29:52.165Z,98816.09
2023-02-17T20:32:25.515Z,98804.25
2023-02-17T20:34:58.796Z,98810.19
2023-02-17T20:37:33.330Z,98806.94
2023-02-17T20:40:08.355Z,98812.72
2023-02-17T20:42:41.526Z,98812.25
2023-02-17T20:45:14.797Z,98806.25
2023-02-17T20:47:48.060Z,98805.75
2023-02-17T20:50:23.634Z,98808.69
2023-02-17T20:52:58.201Z,98814.69
2023-02-17T20:55:31.864Z,98810.94
2023-02-17T20:58:06.647Z,98813.22
2023-02-17T21:00:40.758Z,98820.38
2023-02-17T21:03:14.064Z,98817.00
2023-02-17T21:05:47.360Z,98808.16
2023-02-17T21:08:21.996Z,98820.69
2023-02-17T21:10:55.147Z,98809.81
2023-02-17T21:13:29.672Z,98802.50
2023-02-17T21:16:03.267Z,98806.06
2023-02-17T21:18:38.057Z,98816.31
2023-02-17T21:21:11.496Z,98810.00
2023-02-17T21:23:46.190Z,98812.47
2023-02-17T21:26:19.525Z,98806.84
2023-02-17T21:28:52.793Z,98806.72
2023-02-17T21:31:28.921Z,98802.91
2023-02-17T21:34:02.256Z,98808.63
2023-02-17T21:36:36.124Z,98807.44
2023-02-17T21:39:11.619Z,98811.97
2023-02-17T21:41:45.031Z,98800.53
2023-02-17T21:44:35.829Z,98801.50
2023-02-17T21:47:09.139Z,98795.41
2023-02-17T21:49:42.486Z,98804.06
2023-02-17T21:52:16.304Z,98806.84
2023-02-17T21:54:50.845Z,98806.94
2023-02-17T21:57:24.111Z,98802.50
2023-02-17T21:59:57.320Z,98802.13
2023-02-17T22:02:30.594Z,98797.97
2023-02-17T22:05:04.071Z,98800.53
2023-02-17T22:07:37.865Z,98803.47
2023-02-17T22:10:12.978Z,98806.94
2023-02-17T22:12:46.154Z,98800.16
2023-02-17T22:15:19.621Z,98803.97
2023-02-17T22:17:52.849Z,98807.03
2023-02-17T22:20:26.825Z,98807.34
2023-02-17T22:23:00.086Z,98802.91
2023-02-17T22:25:34.705Z,98806.66
2023-02-17T22:28:10.305Z,98809.59
2023-02-17T22:30:44.425Z,98807.91
2023-02-17T22:33:17.770Z,98821.41
2023-02-17T22:35:59.428Z,98823.97
2023-02-17T22:38:33.022Z,98814.44
2023-02-17T22:41:09.200Z,98813.22
2023-02-17T22:43:44.045Z,98815.31
2023-02-17T22:46:19.959Z,98802.69
2023-02-17T22:48:54.493Z,98811.59
2023-02-17T22:51:30.697Z,98816.53
2023-02-17T22:54:04.751Z,98819.75
2023-02-17T22:56:39.330Z,98817.41
2023-02-17T22:59:12.643Z,98823.22
2023-02-17T23:01:46.322Z,98820.56
2023-02-17T23:04:19.831Z,98815.03
2023-02-17T23:06:53.126Z,98810.78
2023-02-17T23:09:26.429Z,98810.78
2023-02-17T23:12:01.009Z,98818.09
2023-02-17T23:14:36.974Z,98814.16
2023-02-17T23:17:13.101Z,98818.78
2023-02-17T23:19:46.463Z,98817.78
2023-02-17T23:22:20.368Z,98811.69
2023-02-17T23:24:53.614Z,98817.88
2023-02-17T23:27:28.272Z,98811.69
2023-02-17T23:30:01.526Z,98811.47
2023-02-17T23:32:34.841Z,98811.38
2023-02-17T23:35:08.484Z,98802.69
2023-02-17T23:37:41.897Z,98804.00
2023-02-17T23:40:16.254Z,98796.78
2023-02-17T23:42:50.853Z,98796.50
2023-02-17T23:45:24.076Z,98797.56
2023-02-17T23:47:57.278Z,98796.97
2023-02-17T23:50:30.456Z,98797.66
2023-02-17T23:53:03.637Z,98785.16
2023-02-17T23:55:36.946Z,98791.94
2023-02-17T23:58:11.554Z,98798.34
